sensor_id;sensor_type;location;lat;lon;timestamp;temperature;humidity
5508;DHT22;2776;51.046;6.772;2024-03-02T00:00:14;8.20;99.90
5508;DHT22;2776;51.046;6.772;2024-03-02T00:02:42;8.20;99.90
5508;DHT22;2776;51.046;6.772;2024-03-02T00:05:12;8.30;99.90
5508;DHT22;2776;51.046;6.772;2024-03-02T00:07:41;8.30;99.90
5508;DHT22;2776;51.046;6.772;2024-03-02T00:10:10;8.30;99.90
5508;DHT22;2776;51.046;6.772;2024-03-02T00:12:37;8.30;99.90
5508;DHT22;2776;51.046;6.772;2024-03-02T00:15:05;8.40;99.90
5508;DHT22;2776;51.046;6.772;2024-03-02T00:17:33;8.20;99.90
5508;DHT22;2776;51.046;6.772;2024-03-02T00:20:00;8.30;99.90
5508;DHT22;2776;51.046;6.772;2024-03-02T00:22:29;8.30;99.90
5508;DHT22;2776;51.046;6.772;2024-03-02T00:24:56;8.40;99.90
5508;DHT22;2776;51.046;6.772;2024-03-02T00:27:23;8.30;99.90
5508;DHT22;2776;51.046;6.772;2024-03-02T00:29:50;8.40;99.90
5508;DHT22;2776;51.046;6.772;2024-03-02T00:32:17;8.40;99.90
5508;DHT22;2776;51.046;6.772;2024-03-02T00:34:44;8.40;99.90
5508;DHT22;2776;51.046;6.772;2024-03-02T00:37:11;8.40;99.90
5508;DHT22;2776;51.046;6.772;2024-03-02T00:39:39;8.50;99.90
5508;DHT22;2776;51.046;6.772;2024-03-02T00:42:06;8.50;99.90
5508;DHT22;2776;51.046;6.772;2024-03-02T00:44:33;8.50;99.90
5508;DHT22;2776;51.046;6.772;2024-03-02T00:47:01;8.60;99.90
5508;DHT22;2776;51.046;6.772;2024-03-02T00:49:28;8.60;99.90
5508;DHT22;2776;51.046;6.772;2024-03-02T00:51:55;8.60;99.90
5508;DHT22;2776;51.046;6.772;2024-03-02T00:54:23;8.60;99.90
5508;DHT22;2776;51.046;6.772;2024-03-02T00:56:53;8.60;99.90
5508;DHT22;2776;51.046;6.772;2024-03-02T00:59:21;8.70;99.90
5508;DHT22;2776;51.046;6.772;2024-03-02T01:01:48;8.70;99.90
5508;DHT22;2776;51.046;6.772;2024-03-02T01:04:15;8.70;99.90
5508;DHT22;2776;51.046;6.772;2024-03-02T01:06:42;8.70;99.90
5508;DHT22;2776;51.046;6.772;2024-03-02T01:09:09;8.60;99.90
5508;DHT22;2776;51.046;6.772;2024-03-02T01:11:37;8.60;99.90
5508;DHT22;2776;51.046;6.772;2024-03-02T01:14:06;8.50;99.90
5508;DHT22;2776;51.046;6.772;2024-03-02T01:16:33;8.50;99.90
5508;DHT22;2776;51.046;6.772;2024-03-02T01:18:59;8.40;99.90
5508;DHT22;2776;51.046;6.772;2024-03-02T01:21:26;8.40;99.90
5508;DHT22;2776;51.046;6.772;2024-03-02T01:23:53;8.30;99.90
5508;DHT22;2776;51.046;6.772;2024-03-02T01:26:20;8.30;99.90
5508;DHT22;2776;51.046;6.772;2024-03-02T01:28:46;8.30;99.90
5508;DHT22;2776;51.046;6.772;2024-03-02T01:31:14;8.30;99.90
5508;DHT22;2776;51.046;6.772;2024-03-02T01:33:41;8.30;99.90
5508;DHT22;2776;51.046;6.772;2024-03-02T01:36:08;8.40;99.90
5508;DHT22;2776;51.046;6.772;2024-03-02T01:38:35;8.40;99.90
5508;DHT22;2776;51.046;6.772;2024-03-02T01:41:02;8.40;99.90
5508;DHT22;2776;51.046;6.772;2024-03-02T01:43:28;8.40;99.90
5508;DHT22;2776;51.046;6.772;2024-03-02T01:45:55;8.50;99.90
5508;DHT22;2776;51.046;6.772;2024-03-02T01:48:24;8.50;99.90
5508;DHT22;2776;51.046;6.772;2024-03-02T01:50:51;8.50;99.90
5508;DHT22;2776;51.046;6.772;2024-03-02T01:53:18;8.50;99.90
5508;DHT22;2776;51.046;6.772;2024-03-02T01:55:45;8.50;99.90
5508;DHT22;2776;51.046;6.772;2024-03-02T01:58:12;8.50;99.90
5508;DHT22;2776;51.046;6.772;2024-03-02T02:00:39;8.60;99.90
5508;DHT22;2776;51.046;6.772;2024-03-02T02:03:06;8.60;99.90
5508;DHT22;2776;51.046;6.772;2024-03-02T02:05:34;8.60;99.90
5508;DHT22;2776;51.046;6.772;2024-03-02T02:08:01;8.60;99.90
5508;DHT22;2776;51.046;6.772;2024-03-02T02:10:28;8.60;99.90
5508;DHT22;2776;51.046;6.772;2024-03-02T02:12:55;8.60;99.90
5508;DHT22;2776;51.046;6.772;2024-03-02T02:15:23;8.60;99.90
5508;DHT22;2776;51.046;6.772;2024-03-02T02:17:50;8.60;99.90
5508;DHT22;2776;51.046;6.772;2024-03-02T02:20:17;8.50;99.90
5508;DHT22;2776;51.046;6.772;2024-03-02T02:22:57;8.50;99.90
5508;DHT22;2776;51.046;6.772;2024-03-02T02:25:24;8.50;99.90
5508;DHT22;2776;51.046;6.772;2024-03-02T02:27:51;8.50;99.90
5508;DHT22;2776;51.046;6.772;2024-03-02T02:30:21;8.50;99.90
5508;DHT22;2776;51.046;6.772;2024-03-02T02:32:48;8.50;99.90
5508;DHT22;2776;51.046;6.772;2024-03-02T02:35:15;8.60;99.90
5508;DHT22;2776;51.046;6.772;2024-03-02T02:37:42;8.50;99.90
5508;DHT22;2776;51.046;6.772;2024-03-02T02:40:11;8.60;99.90
5508;DHT22;2776;51.046;6.772;2024-03-02T02:42:38;8.60;99.90
5508;DHT22;2776;51.046;6.772;2024-03-02T02:45:06;8.60;99.90
5508;DHT22;2776;51.046;6.772;2024-03-02T02:47:33;8.60;99.90
5508;DHT22;2776;51.046;6.772;2024-03-02T02:50:01;8.60;99.90
5508;DHT22;2776;51.046;6.772;2024-03-02T02:52:31;8.50;99.90
5508;DHT22;2776;51.046;6.772;2024-03-02T02:54:59;8.50;99.90
5508;DHT22;2776;51.046;6.772;2024-03-02T02:57:27;8.40;99.90
5508;DHT22;2776;51.046;6.772;2024-03-02T02:59:56;8.50;99.90
5508;DHT22;2776;51.046;6.772;2024-03-02T03:02:23;8.40;99.90
5508;DHT22;2776;51.046;6.772;2024-03-02T03:04:49;8.40;99.90
5508;DHT22;2776;51.046;6.772;2024-03-02T03:07:16;8.40;99.90
5508;DHT22;2776;51.046;6.772;2024-03-02T03:09:42;8.40;99.90
5508;DHT22;2776;51.046;6.772;2024-03-02T03:12:09;8.40;99.90
5508;DHT22;2776;51.046;6.772;2024-03-02T03:14:37;8.50;99.90
5508;DHT22;2776;51.046;6.772;2024-03-02T03:17:03;8.50;99.90
5508;DHT22;2776;51.046;6.772;2024-03-02T03:19:30;8.50;99.90
5508;DHT22;2776;51.046;6.772;2024-03-02T03:21:57;8.50;99.90
5508;DHT22;2776;51.046;6.772;2024-03-02T03:24:24;8.50;99.90
5508;DHT22;2776;51.046;6.772;2024-03-02T03:26:50;8.40;99.90
5508;DHT22;2776;51.046;6.772;2024-03-02T03:29:17;8.30;99.90
5508;DHT22;2776;51.046;6.772;2024-03-02T03:31:45;8.40;99.90
5508;DHT22;2776;51.046;6.772;2024-03-02T03:34:12;8.30;99.90
5508;DHT22;2776;51.046;6.772;2024-03-02T03:36:41;8.30;99.90
5508;DHT22;2776;51.046;6.772;2024-03-02T03:39:08;8.30;99.90
5508;DHT22;2776;51.046;6.772;2024-03-02T03:41:34;8.40;99.90
5508;DHT22;2776;51.046;6.772;2024-03-02T03:44:01;8.40;99.90
5508;DHT22;2776;51.046;6.772;2024-03-02T03:46:29;8.40;99.90
5508;DHT22;2776;51.046;6.772;2024-03-02T03:48:57;8.40;99.90
5508;DHT22;2776;51.046;6.772;2024-03-02T03:51:23;8.30;99.90
5508;DHT22;2776;51.046;6.772;2024-03-02T03:53:50;8.30;99.90
5508;DHT22;2776;51.046;6.772;2024-03-02T03:56:17;8.30;99.90
5508;DHT22;2776;51.046;6.772;2024-03-02T03:58:43;8.20;99.90
5508;DHT22;2776;51.046;6.772;2024-03-02T04:01:10;8.30;99.90
5508;DHT22;2776;51.046;6.772;2024-03-02T04:03:38;8.20;99.90
5508;DHT22;2776;51.046;6.772;2024-03-02T04:06:06;8.20;99.90
5508;DHT22;2776;51.046;6.772;2024-03-02T04:08:33;8.10;99.90
5508;DHT22;2776;51.046;6.772;2024-03-02T04:10:59;8.10;99.90
5508;DHT22;2776;51.046;6.772;2024-03-02T04:13:28;8.00;99.90
5508;DHT22;2776;51.046;6.772;2024-03-02T04:15:55;8.00;99.90
5508;DHT22;2776;51.046;6.772;2024-03-02T04:18:21;7.90;99.90
5508;DHT22;2776;51.046;6.772;2024-03-02T04:20:48;7.80;99.90
5508;DHT22;2776;51.046;6.772;2024-03-02T04:23:16;7.80;99.90
5508;DHT22;2776;51.046;6.772;2024-03-02T04:25:43;7.70;99.90
5508;DHT22;2776;51.046;6.772;2024-03-02T04:28:09;7.60;99.90
5508;DHT22;2776;51.046;6.772;2024-03-02T04:30:38;7.60;99.90
5508;DHT22;2776;51.046;6.772;2024-03-02T04:33:04;7.50;99.90
5508;DHT22;2776;51.046;6.772;2024-03-02T04:35:32;7.50;99.90
5508;DHT22;2776;51.046;6.772;2024-03-02T04:37:59;7.40;99.90
5508;DHT22;2776;51.046;6.772;2024-03-02T04:40:27;7.30;99.90
5508;DHT22;2776;51.046;6.772;2024-03-02T04:42:54;7.30;99.90
5508;DHT22;2776;51.046;6.772;2024-03-02T04:45:21;7.20;99.90
5508;DHT22;2776;51.046;6.772;2024-03-02T04:47:47;7.20;99.90
5508;DHT22;2776;51.046;6.772;2024-03-02T04:50:14;7.10;99.90
5508;DHT22;2776;51.046;6.772;2024-03-02T04:52:41;7.10;99.90
5508;DHT22;2776;51.046;6.772;2024-03-02T04:55:08;7.00;99.90
5508;DHT22;2776;51.046;6.772;2024-03-02T04:57:56;7.00;99.90
5508;DHT22;2776;51.046;6.772;2024-03-02T05:00:22;6.90;99.90
5508;DHT22;2776;51.046;6.772;2024-03-02T05:02:51;6.90;99.90
5508;DHT22;2776;51.046;6.772;2024-03-02T05:05:18;6.90;99.90
5508;DHT22;2776;51.046;6.772;2024-03-02T05:07:44;6.80;99.90
5508;DHT22;2776;51.046;6.772;2024-03-02T05:10:11;6.90;99.90
5508;DHT22;2776;51.046;6.772;2024-03-02T05:12:38;6.90;99.90
5508;DHT22;2776;51.046;6.772;2024-03-02T05:15:23;7.00;99.90
5508;DHT22;2776;51.046;6.772;2024-03-02T05:17:50;7.00;99.90
5508;DHT22;2776;51.046;6.772;2024-03-02T05:20:17;7.10;99.90
5508;DHT22;2776;51.046;6.772;2024-03-02T05:22:43;7.00;99.90
5508;DHT22;2776;51.046;6.772;2024-03-02T05:25:10;7.00;99.90
5508;DHT22;2776;51.046;6.772;2024-03-02T05:27:37;6.90;99.90
5508;DHT22;2776;51.046;6.772;2024-03-02T05:30:04;7.00;99.90
5508;DHT22;2776;51.046;6.772;2024-03-02T05:32:34;7.00;99.90
5508;DHT22;2776;51.046;6.772;2024-03-02T05:35:00;7.00;99.90
5508;DHT22;2776;51.046;6.772;2024-03-02T05:37:28;7.00;99.90
5508;DHT22;2776;51.046;6.772;2024-03-02T05:39:55;7.00;99.90
5508;DHT22;2776;51.046;6.772;2024-03-02T05:42:22;7.10;99.90
5508;DHT22;2776;51.046;6.772;2024-03-02T05:44:48;7.10;99.90
5508;DHT22;2776;51.046;6.772;2024-03-02T05:47:15;7.00;99.90
5508;DHT22;2776;51.046;6.772;2024-03-02T05:49:43;7.00;99.90
5508;DHT22;2776;51.046;6.772;2024-03-02T05:52:10;7.00;99.90
5508;DHT22;2776;51.046;6.772;2024-03-02T05:54:37;7.00;99.90
5508;DHT22;2776;51.046;6.772;2024-03-02T05:57:05;7.00;99.90
5508;DHT22;2776;51.046;6.772;2024-03-02T05:59:52;7.00;99.90
5508;DHT22;2776;51.046;6.772;2024-03-02T06:02:19;7.00;99.90
5508;DHT22;2776;51.046;6.772;2024-03-02T06:04:47;6.90;99.90
5508;DHT22;2776;51.046;6.772;2024-03-02T06:07:13;6.90;99.90
5508;DHT22;2776;51.046;6.772;2024-03-02T06:09:41;7.00;99.90
5508;DHT22;2776;51.046;6.772;2024-03-02T06:12:07;7.00;99.90
5508;DHT22;2776;51.046;6.772;2024-03-02T06:14:34;7.00;99.90
5508;DHT22;2776;51.046;6.772;2024-03-02T06:17:01;7.10;99.90
5508;DHT22;2776;51.046;6.772;2024-03-02T06:19:28;7.10;99.90
5508;DHT22;2776;51.046;6.772;2024-03-02T06:21:56;7.10;99.90
5508;DHT22;2776;51.046;6.772;2024-03-02T06:24:23;7.10;99.90
5508;DHT22;2776;51.046;6.772;2024-03-02T06:26:51;7.20;99.90
5508;DHT22;2776;51.046;6.772;2024-03-02T06:29:18;7.20;99.90
5508;DHT22;2776;51.046;6.772;2024-03-02T06:31:45;7.20;99.90
5508;DHT22;2776;51.046;6.772;2024-03-02T06:34:12;7.20;99.90
5508;DHT22;2776;51.046;6.772;2024-03-02T06:36:38;7.30;99.90
5508;DHT22;2776;51.046;6.772;2024-03-02T06:39:08;7.30;99.90
5508;DHT22;2776;51.046;6.772;2024-03-02T06:41:35;7.30;99.90
5508;DHT22;2776;51.046;6.772;2024-03-02T06:44:02;7.40;99.90
5508;DHT22;2776;51.046;6.772;2024-03-02T06:46:29;7.40;99.90
5508;DHT22;2776;51.046;6.772;2024-03-02T06:48:56;7.50;99.90
5508;DHT22;2776;51.046;6.772;2024-03-02T06:51:23;7.50;99.90
5508;DHT22;2776;51.046;6.772;2024-03-02T06:53:49;7.50;99.90
5508;DHT22;2776;51.046;6.772;2024-03-02T06:56:17;7.60;99.90
5508;DHT22;2776;51.046;6.772;2024-03-02T06:58:44;7.70;99.90
5508;DHT22;2776;51.046;6.772;2024-03-02T07:01:11;7.90;99.90
5508;DHT22;2776;51.046;6.772;2024-03-02T07:03:37;8.00;99.90
5508;DHT22;2776;51.046;6.772;2024-03-02T07:06:05;8.10;99.90
5508;DHT22;2776;51.046;6.772;2024-03-02T07:08:31;8.30;99.90
5508;DHT22;2776;51.046;6.772;2024-03-02T07:10:58;8.40;99.90
5508;DHT22;2776;51.046;6.772;2024-03-02T07:13:27;8.50;99.90
5508;DHT22;2776;51.046;6.772;2024-03-02T07:15:54;8.70;99.90
5508;DHT22;2776;51.046;6.772;2024-03-02T07:18:52;9.10;99.90
5508;DHT22;2776;51.046;6.772;2024-03-02T07:21:20;9.60;99.90
5508;DHT22;2776;51.046;6.772;2024-03-02T07:23:47;9.80;99.90
5508;DHT22;2776;51.046;6.772;2024-03-02T07:26:14;10.10;99.90
5508;DHT22;2776;51.046;6.772;2024-03-02T07:28:43;10.40;99.90
5508;DHT22;2776;51.046;6.772;2024-03-02T07:31:10;11.10;99.90
5508;DHT22;2776;51.046;6.772;2024-03-02T07:33:37;11.70;99.90
5508;DHT22;2776;51.046;6.772;2024-03-02T07:36:05;12.10;99.90
5508;DHT22;2776;51.046;6.772;2024-03-02T07:38:32;11.90;99.90
5508;DHT22;2776;51.046;6.772;2024-03-02T07:40:59;11.70;99.90
5508;DHT22;2776;51.046;6.772;2024-03-02T07:43:26;11.70;99.90
5508;DHT22;2776;51.046;6.772;2024-03-02T07:45:55;11.70;99.90
5508;DHT22;2776;51.046;6.772;2024-03-02T07:48:22;11.90;99.90
5508;DHT22;2776;51.046;6.772;2024-03-02T07:50:49;11.90;99.90
5508;DHT22;2776;51.046;6.772;2024-03-02T07:53:16;12.00;99.90
5508;DHT22;2776;51.046;6.772;2024-03-02T07:55:42;12.10;99.90
5508;DHT22;2776;51.046;6.772;2024-03-02T07:58:09;11.80;99.90
5508;DHT22;2776;51.046;6.772;2024-03-02T08:00:38;11.60;99.90
5508;DHT22;2776;51.046;6.772;2024-03-02T08:03:06;11.50;99.90
5508;DHT22;2776;51.046;6.772;2024-03-02T08:05:36;11.70;99.90
5508;DHT22;2776;51.046;6.772;2024-03-02T08:08:04;12.00;99.90
5508;DHT22;2776;51.046;6.772;2024-03-02T08:10:31;12.50;99.90
5508;DHT22;2776;51.046;6.772;2024-03-02T08:12:59;12.80;99.90
5508;DHT22;2776;51.046;6.772;2024-03-02T08:15:25;13.10;99.90
5508;DHT22;2776;51.046;6.772;2024-03-02T08:17:52;13.40;99.90
5508;DHT22;2776;51.046;6.772;2024-03-02T08:20:20;13.50;99.90
5508;DHT22;2776;51.046;6.772;2024-03-02T08:22:47;13.40;99.90
5508;DHT22;2776;51.046;6.772;2024-03-02T08:25:14;13.40;99.90
5508;DHT22;2776;51.046;6.772;2024-03-02T08:27:41;13.50;99.90
5508;DHT22;2776;51.046;6.772;2024-03-02T08:30:09;13.50;99.90
5508;DHT22;2776;51.046;6.772;2024-03-02T08:32:36;13.30;99.90
5508;DHT22;2776;51.046;6.772;2024-03-02T08:35:03;12.90;99.90
5508;DHT22;2776;51.046;6.772;2024-03-02T08:37:32;12.60;99.90
5508;DHT22;2776;51.046;6.772;2024-03-02T08:39:59;12.70;99.90
5508;DHT22;2776;51.046;6.772;2024-03-02T08:42:26;12.60;99.90
5508;DHT22;2776;51.046;6.772;2024-03-02T08:44:53;12.40;99.90
5508;DHT22;2776;51.046;6.772;2024-03-02T08:47:19;12.20;99.90
5508;DHT22;2776;51.046;6.772;2024-03-02T08:49:46;12.20;99.90
5508;DHT22;2776;51.046;6.772;2024-03-02T08:52:13;12.40;99.90
5508;DHT22;2776;51.046;6.772;2024-03-02T08:54:41;12.20;99.90
5508;DHT22;2776;51.046;6.772;2024-03-02T08:57:07;12.50;99.90
5508;DHT22;2776;51.046;6.772;2024-03-02T08:59:34;12.80;99.90
5508;DHT22;2776;51.046;6.772;2024-03-02T09:02:01;13.40;99.90
5508;DHT22;2776;51.046;6.772;2024-03-02T09:04:28;13.70;99.90
5508;DHT22;2776;51.046;6.772;2024-03-02T09:06:55;13.90;99.90
5508;DHT22;2776;51.046;6.772;2024-03-02T09:09:22;14.00;99.90
5508;DHT22;2776;51.046;6.772;2024-03-02T09:11:50;14.00;99.90
5508;DHT22;2776;51.046;6.772;2024-03-02T09:14:17;13.90;99.90
5508;DHT22;2776;51.046;6.772;2024-03-02T09:16:43;13.50;99.90
5508;DHT22;2776;51.046;6.772;2024-03-02T09:19:10;12.80;99.90
5508;DHT22;2776;51.046;6.772;2024-03-02T09:21:37;12.40;99.90
5508;DHT22;2776;51.046;6.772;2024-03-02T09:24:04;12.60;99.90
5508;DHT22;2776;51.046;6.772;2024-03-02T09:26:32;12.60;99.90
5508;DHT22;2776;51.046;6.772;2024-03-02T09:29:00;12.80;99.90
5508;DHT22;2776;51.046;6.772;2024-03-02T09:31:26;12.90;99.90
5508;DHT22;2776;51.046;6.772;2024-03-02T09:33:53;12.60;99.90
5508;DHT22;2776;51.046;6.772;2024-03-02T09:36:21;12.30;99.90
5508;DHT22;2776;51.046;6.772;2024-03-02T09:38:48;12.30;99.90
5508;DHT22;2776;51.046;6.772;2024-03-02T09:41:15;12.20;99.90
5508;DHT22;2776;51.046;6.772;2024-03-02T09:43:42;12.40;99.90
5508;DHT22;2776;51.046;6.772;2024-03-02T09:46:10;12.70;99.90
5508;DHT22;2776;51.046;6.772;2024-03-02T09:48:37;12.50;99.90
5508;DHT22;2776;51.046;6.772;2024-03-02T09:51:04;12.40;99.90
5508;DHT22;2776;51.046;6.772;2024-03-02T09:53:33;12.40;99.90
5508;DHT22;2776;51.046;6.772;2024-03-02T09:56:00;12.40;99.90
5508;DHT22;2776;51.046;6.772;2024-03-02T09:58:27;12.60;99.90
5508;DHT22;2776;51.046;6.772;2024-03-02T10:00:54;12.60;99.90
5508;DHT22;2776;51.046;6.772;2024-03-02T10:03:23;12.60;99.90
5508;DHT22;2776;51.046;6.772;2024-03-02T10:05:49;12.40;99.90
5508;DHT22;2776;51.046;6.772;2024-03-02T10:08:17;12.60;99.90
5508;DHT22;2776;51.046;6.772;2024-03-02T10:10:44;12.50;99.90
5508;DHT22;2776;51.046;6.772;2024-03-02T10:13:12;12.30;99.90
5508;DHT22;2776;51.046;6.772;2024-03-02T10:15:40;12.50;99.90
5508;DHT22;2776;51.046;6.772;2024-03-02T10:18:09;12.60;99.90
5508;DHT22;2776;51.046;6.772;2024-03-02T10:20:38;12.60;99.90
5508;DHT22;2776;51.046;6.772;2024-03-02T10:23:12;12.80;99.90
5508;DHT22;2776;51.046;6.772;2024-03-02T10:25:40;12.60;99.90
5508;DHT22;2776;51.046;6.772;2024-03-02T10:28:07;12.70;99.90
5508;DHT22;2776;51.046;6.772;2024-03-02T10:30:33;12.90;99.90
5508;DHT22;2776;51.046;6.772;2024-03-02T10:33:01;13.00;99.90
5508;DHT22;2776;51.046;6.772;2024-03-02T10:35:28;12.90;99.90
5508;DHT22;2776;51.046;6.772;2024-03-02T10:37:58;13.00;99.90
5508;DHT22;2776;51.046;6.772;2024-03-02T10:40:26;13.10;99.90
5508;DHT22;2776;51.046;6.772;2024-03-02T10:42:53;13.00;99.90
5508;DHT22;2776;51.046;6.772;2024-03-02T10:45:21;13.00;99.90
5508;DHT22;2776;51.046;6.772;2024-03-02T10:47:49;13.00;99.90
5508;DHT22;2776;51.046;6.772;2024-03-02T10:50:16;12.80;99.90
5508;DHT22;2776;51.046;6.772;2024-03-02T10:52:43;13.30;99.90
5508;DHT22;2776;51.046;6.772;2024-03-02T10:55:11;13.30;99.90
5508;DHT22;2776;51.046;6.772;2024-03-02T10:57:42;11.70;99.90
5508;DHT22;2776;51.046;6.772;2024-03-02T11:00:12;13.20;99.90
5508;DHT22;2776;51.046;6.772;2024-03-02T11:02:46;13.30;99.90
5508;DHT22;2776;51.046;6.772;2024-03-02T11:05:22;13.20;99.90
5508;DHT22;2776;51.046;6.772;2024-03-02T11:07:52;13.30;99.90
5508;DHT22;2776;51.046;6.772;2024-03-02T11:10:21;13.50;99.90
5508;DHT22;2776;51.046;6.772;2024-03-02T11:12:55;13.70;99.90
5508;DHT22;2776;51.046;6.772;2024-03-02T11:15:25;13.70;99.90
5508;DHT22;2776;51.046;6.772;2024-03-02T11:17:52;13.80;99.90
5508;DHT22;2776;51.046;6.772;2024-03-02T11:20:20;13.60;99.90
5508;DHT22;2776;51.046;6.772;2024-03-02T11:22:47;13.60;99.90
5508;DHT22;2776;51.046;6.772;2024-03-02T11:25:33;13.80;99.90
5508;DHT22;2776;51.046;6.772;2024-03-02T11:28:05;13.90;99.90
5508;DHT22;2776;51.046;6.772;2024-03-02T11:30:51;13.80;99.80
5508;DHT22;2776;51.046;6.772;2024-03-02T11:33:26;13.90;99.90
5508;DHT22;2776;51.046;6.772;2024-03-02T11:35:56;13.80;99.90
5508;DHT22;2776;51.046;6.772;2024-03-02T11:38:23;13.90;99.80
5508;DHT22;2776;51.046;6.772;2024-03-02T11:40:52;14.10;99.90
5508;DHT22;2776;51.046;6.772;2024-03-02T11:43:20;14.10;99.40
5508;DHT22;2776;51.046;6.772;2024-03-02T11:45:46;14.10;98.50
5508;DHT22;2776;51.046;6.772;2024-03-02T11:48:14;14.10;99.00
5508;DHT22;2776;51.046;6.772;2024-03-02T11:50:42;14.00;99.20
5508;DHT22;2776;51.046;6.772;2024-03-02T11:53:10;14.10;98.80
5508;DHT22;2776;51.046;6.772;2024-03-02T11:55:38;14.20;99.90
5508;DHT22;2776;51.046;6.772;2024-03-02T11:58:07;14.30;99.90
5508;DHT22;2776;51.046;6.772;2024-03-02T12:00:34;14.40;99.40
5508;DHT22;2776;51.046;6.772;2024-03-02T12:03:02;14.40;99.20
5508;DHT22;2776;51.046;6.772;2024-03-02T12:05:30;14.40;98.30
5508;DHT22;2776;51.046;6.772;2024-03-02T12:07:58;14.20;98.80
5508;DHT22;2776;51.046;6.772;2024-03-02T12:10:25;14.20;99.50
5508;DHT22;2776;51.046;6.772;2024-03-02T12:12:56;14.20;99.40
5508;DHT22;2776;51.046;6.772;2024-03-02T12:15:25;14.00;99.80
5508;DHT22;2776;51.046;6.772;2024-03-02T12:17:54;14.00;98.90
5508;DHT22;2776;51.046;6.772;2024-03-02T12:20:21;13.90;99.70
5508;DHT22;2776;51.046;6.772;2024-03-02T12:22:49;13.80;99.50
5508;DHT22;2776;51.046;6.772;2024-03-02T12:25:17;14.00;99.90
5508;DHT22;2776;51.046;6.772;2024-03-02T12:27:44;13.80;99.90
5508;DHT22;2776;51.046;6.772;2024-03-02T12:30:12;14.00;99.50
5508;DHT22;2776;51.046;6.772;2024-03-02T12:32:40;14.00;99.30
5508;DHT22;2776;51.046;6.772;2024-03-02T12:35:08;14.10;99.00
5508;DHT22;2776;51.046;6.772;2024-03-02T12:37:42;14.30;99.90
5508;DHT22;2776;51.046;6.772;2024-03-02T12:40:10;14.10;99.80
5508;DHT22;2776;51.046;6.772;2024-03-02T12:42:37;14.20;99.80
5508;DHT22;2776;51.046;6.772;2024-03-02T12:45:05;14.10;99.90
5508;DHT22;2776;51.046;6.772;2024-03-02T12:47:32;14.20;99.90
5508;DHT22;2776;51.046;6.772;2024-03-02T12:50:01;14.10;99.50
5508;DHT22;2776;51.046;6.772;2024-03-02T12:52:29;14.20;99.90
5508;DHT22;2776;51.046;6.772;2024-03-02T12:54:56;14.20;99.90
5508;DHT22;2776;51.046;6.772;2024-03-02T12:57:25;14.10;99.90
5508;DHT22;2776;51.046;6.772;2024-03-02T12:59:57;14.00;99.80
5508;DHT22;2776;51.046;6.772;2024-03-02T13:02:27;13.90;99.90
5508;DHT22;2776;51.046;6.772;2024-03-02T13:04:54;13.90;99.90
5508;DHT22;2776;51.046;6.772;2024-03-02T13:07:23;13.80;99.90
5508;DHT22;2776;51.046;6.772;2024-03-02T13:09:50;13.90;99.90
5508;DHT22;2776;51.046;6.772;2024-03-02T13:12:19;14.10;99.90
5508;DHT22;2776;51.046;6.772;2024-03-02T13:14:48;14.10;99.90
5508;DHT22;2776;51.046;6.772;2024-03-02T13:17:17;14.20;99.90
5508;DHT22;2776;51.046;6.772;2024-03-02T13:19:51;14.20;99.90
5508;DHT22;2776;51.046;6.772;2024-03-02T13:22:18;14.20;99.90
5508;DHT22;2776;51.046;6.772;2024-03-02T13:24:46;14.10;99.90
5508;DHT22;2776;51.046;6.772;2024-03-02T13:27:13;14.20;99.90
5508;DHT22;2776;51.046;6.772;2024-03-02T13:29:40;14.20;99.90
5508;DHT22;2776;51.046;6.772;2024-03-02T13:32:07;14.20;99.90
5508;DHT22;2776;51.046;6.772;2024-03-02T13:34:35;14.10;99.90
5508;DHT22;2776;51.046;6.772;2024-03-02T13:37:03;14.10;99.90
5508;DHT22;2776;51.046;6.772;2024-03-02T13:39:31;13.90;99.90
5508;DHT22;2776;51.046;6.772;2024-03-02T13:41:59;14.00;99.90
5508;DHT22;2776;51.046;6.772;2024-03-02T13:44:31;13.90;99.90
5508;DHT22;2776;51.046;6.772;2024-03-02T13:46:59;13.80;99.90
5508;DHT22;2776;51.046;6.772;2024-03-02T13:49:26;13.70;99.90
5508;DHT22;2776;51.046;6.772;2024-03-02T13:51:58;13.70;99.90
5508;DHT22;2776;51.046;6.772;2024-03-02T13:54:26;13.70;99.90
5508;DHT22;2776;51.046;6.772;2024-03-02T13:56:53;13.70;99.90
5508;DHT22;2776;51.046;6.772;2024-03-02T13:59:22;13.70;99.90
5508;DHT22;2776;51.046;6.772;2024-03-02T14:01:49;13.80;99.90
5508;DHT22;2776;51.046;6.772;2024-03-02T14:04:15;13.80;99.90
5508;DHT22;2776;51.046;6.772;2024-03-02T14:06:43;13.80;99.90
5508;DHT22;2776;51.046;6.772;2024-03-02T14:09:09;13.90;99.90
5508;DHT22;2776;51.046;6.772;2024-03-02T14:11:36;13.90;99.90
5508;DHT22;2776;51.046;6.772;2024-03-02T14:14:03;13.90;99.90
5508;DHT22;2776;51.046;6.772;2024-03-02T14:16:31;13.90;99.90
5508;DHT22;2776;51.046;6.772;2024-03-02T14:18:57;13.90;99.90
5508;DHT22;2776;51.046;6.772;2024-03-02T14:21:25;14.00;99.90
5508;DHT22;2776;51.046;6.772;2024-03-02T14:23:51;13.90;99.90
5508;DHT22;2776;51.046;6.772;2024-03-02T14:26:18;13.90;99.90
5508;DHT22;2776;51.046;6.772;2024-03-02T14:28:45;13.90;99.90
5508;DHT22;2776;51.046;6.772;2024-03-02T14:31:12;13.90;99.90
5508;DHT22;2776;51.046;6.772;2024-03-02T14:33:40;13.90;99.90
5508;DHT22;2776;51.046;6.772;2024-03-02T14:36:08;14.00;99.90
5508;DHT22;2776;51.046;6.772;2024-03-02T14:38:35;13.90;99.90
5508;DHT22;2776;51.046;6.772;2024-03-02T14:41:03;13.90;99.90
5508;DHT22;2776;51.046;6.772;2024-03-02T14:43:30;13.90;99.90
5508;DHT22;2776;51.046;6.772;2024-03-02T14:45:56;14.10;99.90
5508;DHT22;2776;51.046;6.772;2024-03-02T14:48:24;14.10;99.90
5508;DHT22;2776;51.046;6.772;2024-03-02T14:50:53;14.10;99.90
5508;DHT22;2776;51.046;6.772;2024-03-02T14:53:20;14.20;99.90
5508;DHT22;2776;51.046;6.772;2024-03-02T14:55:46;14.30;99.90
5508;DHT22;2776;51.046;6.772;2024-03-02T14:58:13;14.30;99.50
5508;DHT22;2776;51.046;6.772;2024-03-02T15:00:41;14.40;99.90
5508;DHT22;2776;51.046;6.772;2024-03-02T15:03:08;14.40;99.90
5508;DHT22;2776;51.046;6.772;2024-03-02T15:05:37;14.50;99.40
5508;DHT22;2776;51.046;6.772;2024-03-02T15:08:06;14.60;99.90
5508;DHT22;2776;51.046;6.772;2024-03-02T15:10:33;14.60;99.50
5508;DHT22;2776;51.046;6.772;2024-03-02T15:12:59;14.50;99.40
5508;DHT22;2776;51.046;6.772;2024-03-02T15:15:26;14.50;99.40
5508;DHT22;2776;51.046;6.772;2024-03-02T15:17:53;14.60;99.60
5508;DHT22;2776;51.046;6.772;2024-03-02T15:20:20;14.60;99.20
5508;DHT22;2776;51.046;6.772;2024-03-02T15:22:47;14.60;98.90
5508;DHT22;2776;51.046;6.772;2024-03-02T15:25:15;14.60;98.90
5508;DHT22;2776;51.046;6.772;2024-03-02T15:27:42;14.60;99.90
5508;DHT22;2776;51.046;6.772;2024-03-02T15:30:09;14.70;98.80
5508;DHT22;2776;51.046;6.772;2024-03-02T15:32:36;14.60;98.20
5508;DHT22;2776;51.046;6.772;2024-03-02T15:35:04;14.70;98.90
5508;DHT22;2776;51.046;6.772;2024-03-02T15:37:31;14.40;99.90
5508;DHT22;2776;51.046;6.772;2024-03-02T15:39:58;14.60;97.70
5508;DHT22;2776;51.046;6.772;2024-03-02T15:42:32;14.40;97.60
5508;DHT22;2776;51.046;6.772;2024-03-02T15:44:59;14.30;97.70
5508;DHT22;2776;51.046;6.772;2024-03-02T15:47:26;14.20;97.50
5508;DHT22;2776;51.046;6.772;2024-03-02T15:49:53;14.20;97.30
5508;DHT22;2776;51.046;6.772;2024-03-02T15:52:20;14.20;97.80
5508;DHT22;2776;51.046;6.772;2024-03-02T15:54:47;14.10;97.40
5508;DHT22;2776;51.046;6.772;2024-03-02T15:57:14;14.20;97.80
5508;DHT22;2776;51.046;6.772;2024-03-02T15:59:43;14.20;97.60
5508;DHT22;2776;51.046;6.772;2024-03-02T16:02:10;14.20;97.70
5508;DHT22;2776;51.046;6.772;2024-03-02T16:04:36;14.10;98.00
5508;DHT22;2776;51.046;6.772;2024-03-02T16:07:03;14.20;97.90
5508;DHT22;2776;51.046;6.772;2024-03-02T16:09:30;14.10;97.10
5508;DHT22;2776;51.046;6.772;2024-03-02T16:11:57;14.10;97.70